sensor_id;sensor_type;location;lat;lon;timestamp;pressure;altitude;pressure_sealevel;temperature;humidity
77587;BME280;66744;49.716;17.158;2024-01-30T00:02:42;101172.31;;;-0.94;75.33
77587;BME280;66744;49.716;17.158;2024-01-30T00:05:46;101177.22;;;-0.96;75.96
77587;BME280;66744;49.716;17.158;2024-01-30T00:08:49;101170.22;;;-0.97;75.81
77587;BME280;66744;49.716;17.158;2024-01-30T00:11:50;101172.13;;;-0.97;75.06
77587;BME280;66744;49.716;17.158;2024-01-30T00:14:52;101165.44;;;-1.00;75.60
77587;BME280;66744;49.716;17.158;2024-01-30T00:17:59;101161.94;;;-1.00;75.21
77587;BME280;66744;49.716;17.158;2024-01-30T00:21:05;101171.94;;;-1.01;74.97
77587;BME280;66744;49.716;17.158;2024-01-30T00:24:13;101166.38;;;-1.04;74.76
77587;BME280;66744;49.716;17.158;2024-01-30T00:27:15;101164.28;;;-1.07;74.54
77587;BME280;66744;49.716;17.158;2024-01-30T00:30:23;101169.16;;;-1.09;74.94
77587;BME280;66744;49.716;17.158;2024-01-30T00:33:26;101163.78;;;-1.09;74.98
77587;BME280;66744;49.716;17.158;2024-01-30T00:36:29;101161.00;;;-1.18;74.74
77587;BME280;66744;49.716;17.158;2024-01-30T00:39:33;101166.72;;;-1.20;74.94
77587;BME280;66744;49.716;17.158;2024-01-30T00:42:34;101157.50;;;-1.19;74.72
77587;BME280;66744;49.716;17.158;2024-01-30T00:45:36;101164.63;;;-1.23;74.56
77587;BME280;66744;49.716;17.158;2024-01-30T00:48:39;101153.84;;;-1.23;74.37
77587;BME280;66744;49.716;17.158;2024-01-30T00:51:40;101161.44;;;-1.25;74.74
77587;BME280;66744;49.716;17.158;2024-01-30T00:54:41;101160.13;;;-1.27;74.61
77587;BME280;66744;49.716;17.158;2024-01-30T00:57:43;101161.44;;;-1.25;74.31
77587;BME280;66744;49.716;17.158;2024-01-30T01:00:48;101156.16;;;-1.30;74.49
77587;BME280;66744;49.716;17.158;2024-01-30T01:03:49;101155.06;;;-1.29;74.32
77587;BME280;66744;49.716;17.158;2024-01-30T01:06:51;101155.66;;;-1.32;73.73
77587;BME280;66744;49.716;17.158;2024-01-30T01:09:53;101157.06;;;-1.34;73.81
77587;BME280;66744;49.716;17.158;2024-01-30T01:12:55;101145.50;;;-1.35;74.78
77587;BME280;66744;49.716;17.158;2024-01-30T01:16:00;101149.00;;;-1.34;74.04
77587;BME280;66744;49.716;17.158;2024-01-30T01:19:02;101145.28;;;-1.38;74.62
77587;BME280;66744;49.716;17.158;2024-01-30T01:22:04;101139.41;;;-1.40;74.85
77587;BME280;66744;49.716;17.158;2024-01-30T01:25:06;101138.81;;;-1.37;74.31
77587;BME280;66744;49.716;17.158;2024-01-30T01:28:10;101142.13;;;-1.40;74.23
77587;BME280;66744;49.716;17.158;2024-01-30T01:31:12;101140.22;;;-1.40;74.45
77587;BME280;66744;49.716;17.158;2024-01-30T01:34:17;101134.84;;;-1.40;74.68
77587;BME280;66744;49.716;17.158;2024-01-30T01:37:20;101138.75;;;-1.46;74.30
77587;BME280;66744;49.716;17.158;2024-01-30T01:40:25;101143.00;;;-1.45;74.36
77587;BME280;66744;49.716;17.158;2024-01-30T01:43:29;101129.34;;;-1.48;74.48
77587;BME280;66744;49.716;17.158;2024-01-30T01:46:35;101146.91;;;-1.51;74.79
77587;BME280;66744;49.716;17.158;2024-01-30T01:49:40;101134.72;;;-1.48;74.42
77587;BME280;66744;49.716;17.158;2024-01-30T01:52:43;101143.25;;;-1.55;74.42
77587;BME280;66744;49.716;17.158;2024-01-30T01:55:45;101134.84;;;-1.53;74.54
77587;BME280;66744;49.716;17.158;2024-01-30T01:58:49;101137.06;;;-1.55;74.54
77587;BME280;66744;49.716;17.158;2024-01-30T02:06:27;101132.75;;;-1.56;74.09
77587;BME280;66744;49.716;17.158;2024-01-30T02:09:31;101137.53;;;-1.53;74.81
77587;BME280;66744;49.716;17.158;2024-01-30T02:12:36;101138.75;;;-1.59;74.52
77587;BME280;66744;49.716;17.158;2024-01-30T02:15:37;101130.19;;;-1.61;74.40
77587;BME280;66744;49.716;17.158;2024-01-30T02:18:46;101136.66;;;-1.62;74.46
77587;BME280;66744;49.716;17.158;2024-01-30T02:21:49;101125.41;;;-1.64;74.50
77587;BME280;66744;49.716;17.158;2024-01-30T02:24:53;101130.78;;;-1.64;74.12
77587;BME280;66744;49.716;17.158;2024-01-30T02:28:00;101123.19;;;-1.62;74.72
77587;BME280;66744;49.716;17.158;2024-01-30T02:31:07;101127.00;;;-1.63;74.44
77587;BME280;66744;49.716;17.158;2024-01-30T02:34:09;101127.28;;;-1.65;74.43
77587;BME280;66744;49.716;17.158;2024-01-30T02:37:10;101124.09;;;-1.67;73.90
77587;BME280;66744;49.716;17.158;2024-01-30T02:40:13;101125.19;;;-1.68;74.37
77587;BME280;66744;49.716;17.158;2024-01-30T02:43:16;101121.50;;;-1.72;74.52
77587;BME280;66744;49.716;17.158;2024-01-30T02:46:18;101120.41;;;-1.71;74.52
77587;BME280;66744;49.716;17.158;2024-01-30T02:49:20;101130.09;;;-1.70;74.58
77587;BME280;66744;49.716;17.158;2024-01-30T02:52:21;101123.72;;;-1.74;73.91
77587;BME280;66744;49.716;17.158;2024-01-30T02:55:22;101131.91;;;-1.79;73.69
77587;BME280;66744;49.716;17.158;2024-01-30T02:58:26;101129.50;;;-1.81;74.16
77587;BME280;66744;49.716;17.158;2024-01-30T03:01:28;101122.69;;;-1.78;74.22
77587;BME280;66744;49.716;17.158;2024-01-30T03:04:29;101124.91;;;-1.80;74.15
77587;BME280;66744;49.716;17.158;2024-01-30T03:07:31;101118.84;;;-1.86;74.52
77587;BME280;66744;49.716;17.158;2024-01-30T03:10:36;101117.22;;;-1.87;74.72
77587;BME280;66744;49.716;17.158;2024-01-30T03:13:37;101120.91;;;-1.83;75.64
77587;BME280;66744;49.716;17.158;2024-01-30T03:16:39;101120.91;;;-1.83;75.28
77587;BME280;66744;49.716;17.158;2024-01-30T03:19:40;101127.41;;;-1.84;74.32
77587;BME280;66744;49.716;17.158;2024-01-30T03:22:42;101115.84;;;-1.84;75.09
77587;BME280;66744;49.716;17.158;2024-01-30T03:25:44;101121.84;;;-1.87;74.25
77587;BME280;66744;49.716;17.158;2024-01-30T03:28:46;101121.31;;;-1.89;74.65
77587;BME280;66744;49.716;17.158;2024-01-30T03:31:53;101107.38;;;-1.91;74.45
77587;BME280;66744;49.716;17.158;2024-01-30T03:34:56;101112.97;;;-1.88;74.68
77587;BME280;66744;49.716;17.158;2024-01-30T03:38:02;101107.38;;;-1.91;74.79
77587;BME280;66744;49.716;17.158;2024-01-30T03:41:07;101112.28;;;-1.93;75.17
77587;BME280;66744;49.716;17.158;2024-01-30T03:44:10;101104.69;;;-1.91;74.22
77587;BME280;66744;49.716;17.158;2024-01-30T03:47:13;101117.25;;;-2.00;75.31
77587;BME280;66744;49.716;17.158;2024-01-30T03:50:14;101106.16;;;-1.99;75.22
77587;BME280;66744;49.716;17.158;2024-01-30T03:53:17;101112.66;;;-2.00;75.09
77587;BME280;66744;49.716;17.158;2024-01-30T03:56:20;101104.59;;;-2.00;75.52
77587;BME280;66744;49.716;17.158;2024-01-30T03:59:23;101105.69;;;-2.01;76.30
77587;BME280;66744;49.716;17.158;2024-01-30T04:02:25;101099.19;;;-2.00;75.48
77587;BME280;66744;49.716;17.158;2024-01-30T04:05:27;101103.78;;;-2.00;74.45
77587;BME280;66744;49.716;17.158;2024-01-30T04:08:29;101100.59;;;-2.02;75.87
77587;BME280;66744;49.716;17.158;2024-01-30T04:11:35;101101.97;;;-2.05;75.40
77587;BME280;66744;49.716;17.158;2024-01-30T04:14:41;101102.59;;;-2.08;75.24
77587;BME280;66744;49.716;17.158;2024-01-30T04:17:45;101098.50;;;-2.05;74.56
77587;BME280;66744;49.716;17.158;2024-01-30T04:20:51;101097.41;;;-2.04;74.77
77587;BME280;66744;49.716;17.158;2024-01-30T04:23:53;101103.91;;;-2.05;74.54
77587;BME280;66744;49.716;17.158;2024-01-30T04:26:54;101095.81;;;-2.05;75.30
77587;BME280;66744;49.716;17.158;2024-01-30T04:30:00;101102.78;;;-2.04;75.57
77587;BME280;66744;49.716;17.158;2024-01-30T04:33:06;101094.41;;;-2.03;75.56
77587;BME280;66744;49.716;17.158;2024-01-30T04:36:13;101105.47;;;-2.04;75.54
77587;BME280;66744;49.716;17.158;2024-01-30T04:39:16;101107.06;;;-2.03;75.35
77587;BME280;66744;49.716;17.158;2024-01-30T04:42:19;101107.88;;;-2.03;75.88
77587;BME280;66744;49.716;17.158;2024-01-30T04:45:23;101117.03;;;-2.04;75.90
77587;BME280;66744;49.716;17.158;2024-01-30T04:48:24;101107.06;;;-2.03;75.89
77587;BME280;66744;49.716;17.158;2024-01-30T04:51:25;101111.16;;;-2.06;75.32
77587;BME280;66744;49.716;17.158;2024-01-30T04:54:26;101109.06;;;-2.09;75.63
77587;BME280;66744;49.716;17.158;2024-01-30T04:57:30;101106.06;;;-2.07;74.71
77587;BME280;66744;49.716;17.158;2024-01-30T05:00:34;101117.97;;;-2.08;74.99
77587;BME280;66744;49.716;17.158;2024-01-30T05:03:40;101116.66;;;-2.11;74.63
77587;BME280;66744;49.716;17.158;2024-01-30T05:06:41;101103.50;;;-2.12;75.16
77587;BME280;66744;49.716;17.158;2024-01-30T05:09:45;101114.25;;;-2.12;75.90
77587;BME280;66744;49.716;17.158;2024-01-30T05:12:48;101115.56;;;-2.10;74.91
77587;BME280;66744;49.716;17.158;2024-01-30T05:15:49;101112.66;;;-2.13;75.06
77587;BME280;66744;49.716;17.158;2024-01-30T05:18:52;101123.72;;;-2.15;75.81
77587;BME280;66744;49.716;17.158;2024-01-30T05:21:53;101117.53;;;-2.15;75.24
77587;BME280;66744;49.716;17.158;2024-01-30T05:24:56;101110.56;;;-2.16;75.30
77587;BME280;66744;49.716;17.158;2024-01-30T05:27:59;101116.53;;;-2.19;75.22
77587;BME280;66744;49.716;17.158;2024-01-30T05:31:00;101124.94;;;-2.21;74.76
77587;BME280;66744;49.716;17.158;2024-01-30T05:34:02;101123.53;;;-2.18;74.95
77587;BME280;66744;49.716;17.158;2024-01-30T05:37:07;101116.53;;;-2.19;74.52
77587;BME280;66744;49.716;17.158;2024-01-30T05:40:09;101122.22;;;-2.21;75.28
77587;BME280;66744;49.716;17.158;2024-01-30T05:43:10;101120.94;;;-2.23;74.80
77587;BME280;66744;49.716;17.158;2024-01-30T05:46:13;101122.84;;;-2.24;74.88
77587;BME280;66744;49.716;17.158;2024-01-30T05:49:15;101123.13;;;-2.26;75.00
77587;BME280;66744;49.716;17.158;2024-01-30T05:52:19;101119.13;;;-2.28;74.59
77587;BME280;66744;49.716;17.158;2024-01-30T05:55:23;101125.91;;;-2.31;74.71
77587;BME280;66744;49.716;17.158;2024-01-30T05:58:30;101117.34;;;-2.33;74.15
77587;BME280;66744;49.716;17.158;2024-01-30T06:01:34;101117.03;;;-2.31;74.33
77587;BME280;66744;49.716;17.158;2024-01-30T06:04:36;101117.84;;;-2.31;74.71
77587;BME280;66744;49.716;17.158;2024-01-30T06:07:38;101109.75;;;-2.31;75.21
77587;BME280;66744;49.716;17.158;2024-01-30T06:10:40;101117.84;;;-2.31;74.61
77587;BME280;66744;49.716;17.158;2024-01-30T06:13:46;101123.13;;;-2.39;74.86
77587;BME280;66744;49.716;17.158;2024-01-30T06:16:48;101122.84;;;-2.38;73.93
77587;BME280;66744;49.716;17.158;2024-01-30T06:19:51;101121.22;;;-2.39;74.76
77587;BME280;66744;49.716;17.158;2024-01-30T06:22:53;101127.41;;;-2.38;73.66
77587;BME280;66744;49.716;17.158;2024-01-30T06:25:58;101125.81;;;-2.39;74.51
77587;BME280;66744;49.716;17.158;2024-01-30T06:29:02;101123.91;;;-2.39;74.55
77587;BME280;66744;49.716;17.158;2024-01-30T06:32:07;101122.31;;;-2.40;74.24
77587;BME280;66744;49.716;17.158;2024-01-30T06:35:10;101125.31;;;-2.41;74.05
77587;BME280;66744;49.716;17.158;2024-01-30T06:38:11;101121.81;;;-2.42;73.72
77587;BME280;66744;49.716;17.158;2024-01-30T06:41:17;101118.63;;;-2.44;74.88
77587;BME280;66744;49.716;17.158;2024-01-30T06:44:22;101127.47;;;-2.43;74.31
77587;BME280;66744;49.716;17.158;2024-01-30T06:47:24;101128.88;;;-2.46;74.64
77587;BME280;66744;49.716;17.158;2024-01-30T06:50:28;101130.91;;;-2.38;74.53
77587;BME280;66744;49.716;17.158;2024-01-30T06:53:31;101127.91;;;-2.36;73.78
77587;BME280;66744;49.716;17.158;2024-01-30T06:56:33;101127.00;;;-2.32;74.53
77587;BME280;66744;49.716;17.158;2024-01-30T06:59:38;101129.09;;;-2.29;74.56
77587;BME280;66744;49.716;17.158;2024-01-30T07:02:46;101137.09;;;-2.23;73.96
77587;BME280;66744;49.716;17.158;2024-01-30T07:05:48;101130.19;;;-2.16;74.94
77587;BME280;66744;49.716;17.158;2024-01-30T07:08:50;101138.19;;;-2.11;74.54
77587;BME280;66744;49.716;17.158;2024-01-30T07:11:53;101147.25;;;-2.07;75.83
77587;BME280;66744;49.716;17.158;2024-01-30T07:14:55;101129.63;;;-1.99;74.63
77587;BME280;66744;49.716;17.158;2024-01-30T07:17:58;101137.00;;;-1.91;74.92
77587;BME280;66744;49.716;17.158;2024-01-30T07:21:04;101143.28;;;-1.82;74.81
77587;BME280;66744;49.716;17.158;2024-01-30T07:24:07;101140.97;;;-1.75;74.87
77587;BME280;66744;49.716;17.158;2024-01-30T07:27:09;101137.84;;;-1.69;74.76
77587;BME280;66744;49.716;17.158;2024-01-30T07:30:12;101130.19;;;-1.61;74.89
77587;BME280;66744;49.716;17.158;2024-01-30T07:33:13;101134.34;;;-1.55;75.16
77587;BME280;66744;49.716;17.158;2024-01-30T07:36:15;101131.53;;;-1.50;75.21
77587;BME280;66744;49.716;17.158;2024-01-30T07:39:16;101137.81;;;-1.41;75.59
77587;BME280;66744;49.716;17.158;2024-01-30T07:42:19;101140.31;;;-1.31;74.91
77587;BME280;66744;49.716;17.158;2024-01-30T07:45:26;101136.88;;;-1.23;75.37
77587;BME280;66744;49.716;17.158;2024-01-30T07:48:34;101135.53;;;-1.12;75.74
77587;BME280;66744;49.716;17.158;2024-01-30T07:51:39;101138.81;;;-1.01;75.54
77587;BME280;66744;49.716;17.158;2024-01-30T07:54:43;101141.22;;;-0.91;75.39
77587;BME280;66744;49.716;17.158;2024-01-30T07:57:48;101142.09;;;-0.82;76.00
77587;BME280;66744;49.716;17.158;2024-01-30T08:00:50;101134.84;;;-0.73;76.63
77587;BME280;66744;49.716;17.158;2024-01-30T08:04:00;101135.56;;;-0.59;76.65
77587;BME280;66744;49.716;17.158;2024-01-30T08:07:02;101133.59;;;-0.45;75.86
77587;BME280;66744;49.716;17.158;2024-01-30T08:10:03;101143.22;;;-0.30;76.04
77587;BME280;66744;49.716;17.158;2024-01-30T08:13:05;101143.56;;;-0.15;75.04
77587;BME280;66744;49.716;17.158;2024-01-30T08:16:10;101142.38;;;0.00;74.99
77587;BME280;66744;49.716;17.158;2024-01-30T08:19:14;101141.63;;;0.17;75.04
77587;BME280;66744;49.716;17.158;2024-01-30T08:22:17;101142.31;;;0.31;75.04
77587;BME280;66744;49.716;17.158;2024-01-30T08:25:21;101142.03;;;0.41;74.55
77587;BME280;66744;49.716;17.158;2024-01-30T08:28:22;101135.03;;;0.57;74.55
77587;BME280;66744;49.716;17.158;2024-01-30T08:31:24;101142.22;;;0.70;73.89
77587;BME280;66744;49.716;17.158;2024-01-30T08:34:28;101138.09;;;0.81;74.48
77587;BME280;66744;49.716;17.158;2024-01-30T08:37:31;101143.00;;;0.96;72.92
77587;BME280;66744;49.716;17.158;2024-01-30T08:40:33;101142.06;;;1.09;72.37
77587;BME280;66744;49.716;17.158;2024-01-30T08:43:35;101134.09;;;1.22;71.92
77587;BME280;66744;49.716;17.158;2024-01-30T08:46:39;101145.38;;;1.32;73.19
77587;BME280;66744;49.716;17.158;2024-01-30T08:49:42;101137.22;;;1.49;73.14
77587;BME280;66744;49.716;17.158;2024-01-30T08:52:45;101123.94;;;1.65;72.84
77587;BME280;66744;49.716;17.158;2024-01-30T08:55:48;101137.56;;;1.86;71.90
77587;BME280;66744;49.716;17.158;2024-01-30T08:58:51;101131.28;;;2.02;71.71
77587;BME280;66744;49.716;17.158;2024-01-30T09:01:56;101141.13;;;2.15;71.43
77587;BME280;66744;49.716;17.158;2024-01-30T09:05:04;101141.31;;;2.40;72.08
77587;BME280;66744;49.716;17.158;2024-01-30T09:08:07;101145.00;;;2.56;71.40
77587;BME280;66744;49.716;17.158;2024-01-30T09:11:14;101143.03;;;2.86;71.82
77587;BME280;66744;49.716;17.158;2024-01-30T09:14:17;101133.03;;;2.98;70.70
77587;BME280;66744;49.716;17.158;2024-01-30T09:17:19;101131.31;;;3.14;69.78
77587;BME280;66744;49.716;17.158;2024-01-30T09:20:22;101139.09;;;3.36;68.77
77587;BME280;66744;49.716;17.158;2024-01-30T09:23:28;101143.31;;;3.46;68.98
77587;BME280;66744;49.716;17.158;2024-01-30T09:26:33;101150.38;;;3.59;68.59
77587;BME280;66744;49.716;17.158;2024-01-30T09:29:35;101143.91;;;3.64;68.48
77587;BME280;66744;49.716;17.158;2024-01-30T09:32:41;101145.59;;;3.56;70.10
77587;BME280;66744;49.716;17.158;2024-01-30T09:35:43;101135.59;;;3.48;69.28
77587;BME280;66744;49.716;17.158;2024-01-30T09:38:45;101141.84;;;3.49;70.19
77587;BME280;66744;49.716;17.158;2024-01-30T09:45:05;101130.72;;;3.42;70.12
77587;BME280;66744;49.716;17.158;2024-01-30T09:48:11;101132.31;;;3.43;70.41
77587;BME280;66744;49.716;17.158;2024-01-30T09:51:16;101131.19;;;3.44;70.55
77587;BME280;66744;49.716;17.158;2024-01-30T09:54:20;101135.81;;;3.43;70.80
77587;BME280;66744;49.716;17.158;2024-01-30T09:57:25;101133.09;;;3.43;70.73
77587;BME280;66744;49.716;17.158;2024-01-30T10:00:28;101126.88;;;3.43;70.90
77587;BME280;66744;49.716;17.158;2024-01-30T10:03:31;101126.88;;;3.43;71.05
77587;BME280;66744;49.716;17.158;2024-01-30T10:06:35;101112.16;;;3.44;70.49
77587;BME280;66744;49.716;17.158;2024-01-30T10:09:37;101121.31;;;3.39;71.31
77587;BME280;66744;49.716;17.158;2024-01-30T10:12:39;101112.97;;;3.44;70.95
77587;BME280;66744;49.716;17.158;2024-01-30T10:15:42;101108.66;;;3.43;71.06
77587;BME280;66744;49.716;17.158;2024-01-30T10:18:44;101107.31;;;3.49;71.92
77587;BME280;66744;49.716;17.158;2024-01-30T10:21:46;101106.66;;;3.52;72.38
77587;BME280;66744;49.716;17.158;2024-01-30T10:24:50;101102.69;;;3.50;71.40
77587;BME280;66744;49.716;17.158;2024-01-30T10:27:56;101101.78;;;3.58;71.29
77587;BME280;66744;49.716;17.158;2024-01-30T10:31:01;101089.78;;;3.59;71.08
77587;BME280;66744;49.716;17.158;2024-01-30T10:34:05;101093.88;;;3.65;71.97
77587;BME280;66744;49.716;17.158;2024-01-30T10:37:10;101085.16;;;3.59;71.93
77587;BME280;66744;49.716;17.158;2024-01-30T10:40:22;101086.84;;;3.64;72.53
77587;BME280;66744;49.716;17.158;2024-01-30T10:43:40;101086.97;;;3.67;71.24
77587;BME280;66744;49.716;17.158;2024-01-30T10:46:42;101076.22;;;3.71;71.77
77587;BME280;66744;49.716;17.158;2024-01-30T10:49:50;101080.50;;;3.72;71.37
77587;BME280;66744;49.716;17.158;2024-01-30T10:52:52;101081.19;;;3.69;70.84
77587;BME280;66744;49.716;17.158;2024-01-30T10:55:59;101068.06;;;3.71;71.22
77587;BME280;66744;49.716;17.158;2024-01-30T10:59:02;101069.63;;;3.72;70.64
77587;BME280;66744;49.716;17.158;2024-01-30T11:02:06;101067.28;;;3.82;70.26
77587;BME280;66744;49.716;17.158;2024-01-30T11:05:09;101060.38;;;3.85;70.42
77587;BME280;66744;49.716;17.158;2024-01-30T11:08:15;101052.09;;;3.81;70.41
77587;BME280;66744;49.716;17.158;2024-01-30T11:11:24;101049.69;;;3.92;70.52
77587;BME280;66744;49.716;17.158;2024-01-30T11:14:27;101046.53;;;3.90;70.32
77587;BME280;66744;49.716;17.158;2024-01-30T11:20:52;101043.25;;;4.09;69.85
77587;BME280;66744;49.716;17.158;2024-01-30T11:23:57;101040.75;;;4.04;69.98
77587;BME280;66744;49.716;17.158;2024-01-30T11:27:00;101036.31;;;4.11;69.91
77587;BME280;66744;49.716;17.158;2024-01-30T11:30:05;101031.66;;;4.24;69.23
77587;BME280;66744;49.716;17.158;2024-01-30T11:33:09;101020.78;;;4.24;68.68
77587;BME280;66744;49.716;17.158;2024-01-30T11:36:16;101029.50;;;4.17;69.21
77587;BME280;66744;49.716;17.158;2024-01-30T11:39:20;101028.38;;;4.18;67.77
77587;BME280;66744;49.716;17.158;2024-01-30T11:42:24;101011.47;;;4.25;68.47
77587;BME280;66744;49.716;17.158;2024-01-30T11:45:31;100999.00;;;4.24;69.37
77587;BME280;66744;49.716;17.158;2024-01-30T11:48:36;101001.72;;;4.24;68.64
77587;BME280;66744;49.716;17.158;2024-01-30T11:51:40;100995.94;;;4.25;68.29
77587;BME280;66744;49.716;17.158;2024-01-30T11:54:47;100987.44;;;4.27;68.52
77587;BME280;66744;49.716;17.158;2024-01-30T11:57:58;100987.88;;;4.29;68.54
77587;BME280;66744;49.716;17.158;2024-01-30T12:01:03;100990.34;;;4.34;67.17
77587;BME280;66744;49.716;17.158;2024-01-30T12:04:05;100977.53;;;4.34;67.55
77587;BME280;66744;49.716;17.158;2024-01-30T12:07:13;100974.56;;;4.39;68.95
77587;BME280;66744;49.716;17.158;2024-01-30T12:10:17;100968.50;;;4.30;67.87
77587;BME280;66744;49.716;17.158;2024-01-30T12:13:22;100975.72;;;4.38;68.02
77587;BME280;66744;49.716;17.158;2024-01-30T12:16:24;100957.31;;;4.47;67.67
77587;BME280;66744;49.716;17.158;2024-01-30T12:19:27;100958.31;;;4.55;67.86
77587;BME280;66744;49.716;17.158;2024-01-30T12:22:52;100958.41;;;4.59;67.14
77587;BME280;66744;49.716;17.158;2024-01-30T12:25:58;100956.03;;;4.57;67.77
77587;BME280;66744;49.716;17.158;2024-01-30T12:29:04;100955.88;;;4.66;67.43
77587;BME280;66744;49.716;17.158;2024-01-30T12:32:06;100945.06;;;4.69;68.03
77587;BME280;66744;49.716;17.158;2024-01-30T12:35:11;100941.91;;;4.67;66.56
77587;BME280;66744;49.716;17.158;2024-01-30T12:38:14;100941.13;;;4.67;66.64
77587;BME280;66744;49.716;17.158;2024-01-30T12:41:21;100935.50;;;4.75;66.86
77587;BME280;66744;49.716;17.158;2024-01-30T12:44:26;100930.25;;;4.82;66.34
77587;BME280;66744;49.716;17.158;2024-01-30T12:47:28;100926.25;;;4.92;66.11
77587;BME280;66744;49.716;17.158;2024-01-30T12:50:31;100921.75;;;4.84;65.63
77587;BME280;66744;49.716;17.158;2024-01-30T12:53:33;100918.34;;;4.87;66.62
77587;BME280;66744;49.716;17.158;2024-01-30T12:56:36;100914.03;;;4.86;66.15
77587;BME280;66744;49.716;17.158;2024-01-30T12:59:38;100921.75;;;4.84;65.84
77587;BME280;66744;49.716;17.158;2024-01-30T13:02:42;100923.69;;;4.83;66.44
77587;BME280;66744;49.716;17.158;2024-01-30T13:05:48;100921.50;;;4.89;66.92
77587;BME280;66744;49.716;17.158;2024-01-30T13:08:50;100917.63;;;4.90;65.82
77587;BME280;66744;49.716;17.158;2024-01-30T13:11:52;100908.75;;;4.93;66.57
77587;BME280;66744;49.716;17.158;2024-01-30T13:14:56;100917.00;;;4.96;67.13
77587;BME280;66744;49.716;17.158;2024-01-30T13:17:59;100910.75;;;4.96;65.90
77587;BME280;66744;49.716;17.158;2024-01-30T13:21:04;100912.00;;;4.98;66.31
77587;BME280;66744;49.716;17.158;2024-01-30T13:24:06;100906.72;;;5.05;66.17
77587;BME280;66744;49.716;17.158;2024-01-30T13:27:10;100908.31;;;5.07;66.43
77587;BME280;66744;49.716;17.158;2024-01-30T13:30:19;100908.41;;;5.10;66.63
77587;BME280;66744;49.716;17.158;2024-01-30T13:33:26;100913.94;;;4.98;66.84
77587;BME280;66744;49.716;17.158;2024-01-30T13:36:30;100913.25;;;5.01;66.58
77587;BME280;66744;49.716;17.158;2024-01-30T13:39:32;100911.03;;;5.07;66.78
77587;BME280;66744;49.716;17.158;2024-01-30T13:42:35;100911.38;;;5.05;66.17
77587;BME280;66744;49.716;17.158;2024-01-30T13:45:40;100904.47;;;5.08;66.73
77587;BME280;66744;49.716;17.158;2024-01-30T13:48:47;100897.00;;;5.04;67.57
77587;BME280;66744;49.716;17.158;2024-01-30T13:51:51;100894.19;;;5.01;67.32
77587;BME280;66744;49.716;17.158;2024-01-30T13:54:54;100896.09;;;5.00;67.64
77587;BME280;66744;49.716;17.158;2024-01-30T13:57:57;100888.03;;;5.04;66.80
77587;BME280;66744;49.716;17.158;2024-01-30T14:01:01;100883.72;;;5.03;66.38
77587;BME280;66744;49.716;17.158;2024-01-30T14:04:05;100881.97;;;4.95;67.95
77587;BME280;66744;49.716;17.158;2024-01-30T14:07:07;100885.91;;;4.97;67.47
77587;BME280;66744;49.716;17.158;2024-01-30T14:10:12;100886.19;;;4.92;66.96
77587;BME280;66744;49.716;17.158;2024-01-30T14:13:14;100889.94;;;4.88;68.66
77587;BME280;66744;49.716;17.158;2024-01-30T14:16:16;100886.88;;;4.89;68.51
77587;BME280;66744;49.716;17.158;2024-01-30T14:19:19;100874.41;;;4.88;68.86
77587;BME280;66744;49.716;17.158;2024-01-30T14:22:22;100876.50;;;4.95;68.34
77587;BME280;66744;49.716;17.158;2024-01-30T14:25:24;100874.50;;;4.92;67.00
77587;BME280;66744;49.716;17.158;2024-01-30T14:28:26;100886.00;;;5.01;68.23
77587;BME280;66744;49.716;17.158;2024-01-30T14:31:29;100877.94;;;5.04;67.69
77587;BME280;66744;49.716;17.158;2024-01-30T14:34:32;100878.97;;;5.00;68.11
77587;BME280;66744;49.716;17.158;2024-01-30T14:37:35;100883.28;;;5.01;67.17
77587;BME280;66744;49.716;17.158;2024-01-30T14:40:39;100881.50;;;4.93;68.69
77587;BME280;66744;49.716;17.158;2024-01-30T14:43:46;100883.63;;;4.99;68.48
77587;BME280;66744;49.716;17.158;2024-01-30T14:46:49;100882.50;;;5.00;67.49
77587;BME280;66744;49.716;17.158;2024-01-30T14:49:50;100882.81;;;4.99;67.51
77587;BME280;66744;49.716;17.158;2024-01-30T14:52:52;100874.22;;;4.97;67.65
77587;BME280;66744;49.716;17.158;2024-01-30T14:55:54;100878.00;;;4.92;67.88
77587;BME280;66744;49.716;17.158;2024-01-30T14:58:55;100879.41;;;4.86;67.27
77587;BME280;66744;49.716;17.158;2024-01-30T15:01:58;100878.00;;;4.77;67.24
77587;BME280;66744;49.716;17.158;2024-01-30T15:05:02;100888.91;;;4.77;67.31
77587;BME280;66744;49.716;17.158;2024-01-30T15:08:06;100883.78;;;4.75;66.94
77587;BME280;66744;49.716;17.158;2024-01-30T15:11:09;100886.59;;;4.79;67.63
77587;BME280;66744;49.716;17.158;2024-01-30T15:14:10;100889.31;;;4.79;67.66
77587;BME280;66744;49.716;17.158;2024-01-30T15:17:17;100890.28;;;4.71;67.82
77587;BME280;66744;49.716;17.158;2024-01-30T15:20:19;100891.09;;;4.71;67.86
77587;BME280;66744;49.716;17.158;2024-01-30T15:23:22;100898.34;;;4.67;66.82
77587;BME280;66744;49.716;17.158;2024-01-30T15:26:26;100895.00;;;4.58;67.80
77587;BME280;66744;49.716;17.158;2024-01-30T15:29:28;100886.84;;;4.58;67.43
77587;BME280;66744;49.716;17.158;2024-01-30T15:32:32;100895.72;;;4.55;68.30
77587;BME280;66744;49.716;17.158;2024-01-30T15:35:34;100897.69;;;4.42;69.07
77587;BME280;66744;49.716;17.158;2024-01-30T15:38:36;100894.53;;;4.40;67.93
77587;BME280;66744;49.716;17.158;2024-01-30T15:41:39;100893.22;;;4.34;67.68
77587;BME280;66744;49.716;17.158;2024-01-30T15:44:41;100897.09;;;4.33;68.61
77587;BME280;66744;49.716;17.158;2024-01-30T15:47:44;100892.78;;;4.32;68.77
77587;BME280;66744;49.716;17.158;2024-01-30T15:50:46;100890.22;;;4.24;68.93
77587;BME280;66744;49.716;17.158;2024-01-30T15:53:50;100900.78;;;4.13;69.45
77587;BME280;66744;49.716;17.158;2024-01-30T15:56:52;100898.16;;;4.17;68.56
77587;BME280;66744;49.716;17.158;2024-01-30T15:59:56;100897.56;;;4.23;68.98
77587;BME280;66744;49.716;17.158;2024-01-30T16:02:59;100911.88;;;4.20;69.37
77587;BME280;66744;49.716;17.158;2024-01-30T16:06:06;100913.78;;;4.20;68.91